Overview Statistics Trail Chart Weather Telemetry Raw packets
 

This is the latest recevied weather packets stored in our database for station/object HS5XHC-1. If no packets are shown the sender has not sent any weather packets the latest 10 day(s).

<< 36 37 38 39 40 41 42 >>
Time Temp. Humidity Pressure Rain* Wind** Luminosity Snow
1777324520 25° C 66% 965 hPa - - 0 W/m² -
1777323896 24.44° C 68% 965 hPa - - 0 W/m² -
1777323272 24.44° C 68% 965 hPa - - 0 W/m² -
1777322648 24.44° C 68% 965 hPa - - 0 W/m² -
1777322024 25° C 64% 965 hPa - - 0 W/m² -
1777321400 25.56° C 60% 965 hPa - - 0 W/m² -
1777320776 25.56° C 61% 965 hPa - - 0 W/m² -
1777320152 25° C 64% 965 hPa - - 0 W/m² -
1777319864 25° C 63% 965 hPa - - 0 W/m² -
1777319240 25° C 64% 965 hPa - - 0 W/m² -
1777318616 25.56° C 62% 965 hPa - - 0 W/m² -
1777317992 25° C 65% 965 hPa - - 0 W/m² -
1777317368 25° C 65% 965 hPa - - 0 W/m² -
1777316744 25.56° C 62% 965 hPa - - 0 W/m² -
1777316120 26.67° C 58% 965 hPa - - 0 W/m² -
1777315496 26.11° C 60% 965 hPa - - 0 W/m² -
1777314871 25.56° C 63% 965 hPa - - 0 W/m² -
1777314247 25° C 65% 965 hPa - - 0 W/m² -
1777313623 25° C 66% 965 hPa - - 0 W/m² -
1777312999 25° C 66% 965 hPa - - 0 W/m² -
1777312375 25.56° C 62% 965 hPa - - 0 W/m² -
1777311751 26.67° C 54% 965 hPa - - 0 W/m² -
1777311127 27.22° C 53% 965 hPa - - 0 W/m² -
1777310503 27.78° C 52% 965 hPa - - 0 W/m² -
1777309879 27.78° C 52% 965 hPa - - 0 W/m² -

* Rain since midnight (hover to see other rain measurements)
** Current wind speed in m/s (hover to see current wind gust speed)